createdAt,value
2023-05-25T00:00:28.949Z,92.20
2023-05-25T00:03:32.349Z,92.20
2023-05-25T00:06:37.477Z,92.30
2023-05-25T00:09:39.178Z,92.30
2023-05-25T00:12:40.797Z,92.30
2023-05-25T00:15:42.543Z,92.30
2023-05-25T00:18:44.425Z,92.30
2023-05-25T00:21:48.307Z,92.30
2023-05-25T00:24:50.010Z,92.40
2023-05-25T00:27:51.627Z,92.50
2023-05-25T00:30:53.299Z,92.40
2023-05-25T00:33:55.231Z,92.50
2023-05-25T00:36:56.852Z,92.50
2023-05-25T00:39:58.499Z,92.60
2023-05-25T00:43:00.457Z,92.70
2023-05-25T00:46:03.142Z,92.80
2023-05-25T00:49:05.323Z,93.00
2023-05-25T00:52:07.118Z,92.90
2023-05-25T00:55:11.610Z,93.00
2023-05-25T00:58:15.337Z,93.00
2023-05-25T01:01:18.547Z,93.00
2023-05-25T01:04:23.034Z,93.20
2023-05-25T01:07:26.951Z,93.20
2023-05-25T01:10:32.121Z,93.00
2023-05-25T01:13:35.136Z,93.20
2023-05-25T01:16:38.173Z,93.30
2023-05-25T01:19:41.243Z,93.20
2023-05-25T01:22:54.936Z,93.10
2023-05-25T01:25:59.624Z,92.60
2023-05-25T01:29:02.033Z,93.50
2023-05-25T01:32:04.671Z,93.10
2023-05-25T01:35:08.301Z,93.10
2023-05-25T01:38:10.059Z,93.10
2023-05-25T01:41:11.692Z,93.30
2023-05-25T01:44:13.359Z,93.30
2023-05-25T01:47:23.833Z,93.40
2023-05-25T01:50:38.977Z,93.00
2023-05-25T01:53:45.498Z,93.10
2023-05-25T01:56:49.476Z,93.70
2023-05-25T01:59:55.738Z,93.60
2023-05-25T02:02:58.279Z,93.80
2023-05-25T02:06:00.102Z,93.80
2023-05-25T02:09:01.755Z,94.10
2023-05-25T02:12:03.929Z,93.80
2023-05-25T02:15:06.206Z,93.80
2023-05-25T02:18:08.520Z,93.70
2023-05-25T02:21:10.665Z,93.80
2023-05-25T02:24:12.318Z,93.90
2023-05-25T02:27:14.468Z,94.10
2023-05-25T02:30:16.225Z,93.80
2023-05-25T02:33:18.776Z,93.90
2023-05-25T02:36:20.994Z,93.80
2023-05-25T02:39:22.859Z,93.80
2023-05-25T02:42:24.424Z,93.40
2023-05-25T02:45:26.311Z,93.90
2023-05-25T02:48:27.937Z,93.80
2023-05-25T02:51:29.895Z,93.70
2023-05-25T02:54:31.507Z,93.80
2023-05-25T02:57:33.164Z,94.00
2023-05-25T03:00:34.932Z,93.90
2023-05-25T03:03:37.110Z,93.90
2023-05-25T03:06:38.753Z,94.20
2023-05-25T03:09:40.350Z,94.10
2023-05-25T03:12:41.949Z,94.00
2023-05-25T03:15:43.753Z,94.00
2023-05-25T03:18:45.529Z,94.00
2023-05-25T03:21:47.533Z,94.10
2023-05-25T03:24:50.257Z,94.20
2023-05-25T03:27:53.697Z,94.00
2023-05-25T03:30:56.496Z,94.10
2023-05-25T03:33:58.187Z,94.10
2023-05-25T03:37:00.294Z,94.10
2023-05-25T03:40:03.339Z,94.10
2023-05-25T03:43:04.931Z,93.60
2023-05-25T03:46:06.622Z,94.20
2023-05-25T03:49:13.502Z,94.50
2023-05-25T03:52:15.178Z,94.30
2023-05-25T03:55:16.967Z,94.20
2023-05-25T03:58:18.733Z,94.30
2023-05-25T04:01:20.572Z,94.50
2023-05-25T04:04:22.491Z,94.30
2023-05-25T04:07:24.115Z,94.00
2023-05-25T04:10:25.916Z,94.20
2023-05-25T04:13:27.535Z,94.30
2023-05-25T04:16:29.816Z,94.30
2023-05-25T04:19:31.425Z,94.40
2023-05-25T04:22:33.524Z,94.30
2023-05-25T04:25:35.193Z,94.20
2023-05-25T04:28:42.684Z,94.30
2023-05-25T04:31:45.727Z,93.70
2023-05-25T04:34:48.238Z,94.20
2023-05-25T04:37:49.806Z,94.30
2023-05-25T04:40:53.848Z,94.20
2023-05-25T04:44:07.910Z,94.30
2023-05-25T04:47:12.097Z,94.20
2023-05-25T04:50:13.849Z,94.20
2023-05-25T04:53:15.697Z,94.20
2023-05-25T04:56:17.344Z,94.00
2023-05-25T04:59:19.200Z,96.20
2023-05-25T05:02:20.959Z,94.20
2023-05-25T05:05:22.784Z,94.20
2023-05-25T05:08:24.366Z,94.60
2023-05-25T05:11:26.090Z,94.20
2023-05-25T05:14:27.914Z,94.00
2023-05-25T05:17:30.655Z,94.10
2023-05-25T05:20:32.439Z,94.00
2023-05-25T05:23:34.697Z,94.00
2023-05-25T05:26:51.931Z,94.00
2023-05-25T05:29:58.454Z,94.00
2023-05-25T05:33:00.365Z,93.80
2023-05-25T05:36:03.024Z,93.60
2023-05-25T05:39:04.691Z,93.90
2023-05-25T05:42:08.016Z,93.90
2023-05-25T05:45:10.011Z,93.80
2023-05-25T05:48:11.610Z,93.60
2023-05-25T05:51:13.332Z,93.90
2023-05-25T05:54:14.918Z,93.80
2023-05-25T05:57:16.613Z,93.90
2023-05-25T06:00:18.650Z,93.80
2023-05-25T06:03:24.136Z,93.80
2023-05-25T06:06:26.069Z,93.30
2023-05-25T06:09:27.736Z,93.70
2023-05-25T06:12:29.348Z,93.60
2023-05-25T06:15:30.995Z,93.50
2023-05-25T06:18:32.572Z,93.30
2023-05-25T06:21:34.186Z,93.30
2023-05-25T06:24:35.942Z,93.30
2023-05-25T06:27:37.733Z,93.10
2023-05-25T06:30:39.412Z,93.10
2023-05-25T06:33:41.115Z,93.10
2023-05-25T06:36:42.749Z,92.80
2023-05-25T06:39:44.443Z,92.80
2023-05-25T06:42:46.047Z,92.80
2023-05-25T06:45:48.100Z,92.80
2023-05-25T06:48:49.995Z,92.80
2023-05-25T06:51:51.699Z,92.90
2023-05-25T06:54:53.387Z,93.00
2023-05-25T06:57:55.034Z,93.10
2023-05-25T07:00:56.689Z,93.00
2023-05-25T07:03:58.320Z,93.00
2023-05-25T07:07:00.294Z,93.10
2023-05-25T07:10:03.924Z,92.90
2023-05-25T07:13:05.537Z,92.70
2023-05-25T07:16:07.166Z,92.40
2023-05-25T07:19:08.836Z,92.30
2023-05-25T07:22:10.912Z,91.80
2023-05-25T07:25:12.500Z,91.40
2023-05-25T07:28:14.116Z,91.40
2023-05-25T07:31:16.209Z,91.60
2023-05-25T07:34:18.382Z,91.80
2023-05-25T07:37:19.946Z,91.80
2023-05-25T07:40:21.533Z,91.60
2023-05-25T07:43:23.165Z,91.60
2023-05-25T07:46:25.832Z,91.70
2023-05-25T07:49:27.584Z,91.60
2023-05-25T07:52:29.176Z,91.50
2023-05-25T07:55:30.852Z,91.90
2023-05-25T07:58:32.457Z,91.30
2023-05-25T08:01:34.074Z,91.00
2023-05-25T08:04:35.741Z,90.90
2023-05-25T08:07:38.583Z,90.90
2023-05-25T08:10:41.119Z,91.40
2023-05-25T08:13:43.341Z,91.10
2023-05-25T08:16:45.012Z,91.20
2023-05-25T08:19:46.604Z,91.40
2023-05-25T08:22:48.183Z,91.00
2023-05-25T08:25:49.803Z,93.60
2023-05-25T08:28:51.422Z,91.00
2023-05-25T08:31:53.053Z,90.50
2023-05-25T08:34:54.680Z,90.70
2023-05-25T08:37:56.269Z,90.60
2023-05-25T08:41:06.934Z,90.60
2023-05-25T08:44:08.847Z,89.60
2023-05-25T08:47:12.242Z,90.80
2023-05-25T08:50:15.184Z,90.60
2023-05-25T08:53:18.905Z,90.50
2023-05-25T08:56:21.482Z,90.30
2023-05-25T08:59:43.576Z,90.40
2023-05-25T09:03:02.910Z,90.80
2023-05-25T09:06:04.821Z,89.60
2023-05-25T09:09:07.451Z,90.70
2023-05-25T09:12:09.598Z,90.30
2023-05-25T09:15:12.287Z,90.10
2023-05-25T09:18:13.911Z,90.40
2023-05-25T09:21:15.490Z,90.40
2023-05-25T09:24:18.350Z,90.20
2023-05-25T09:27:23.081Z,90.20
2023-05-25T09:30:25.781Z,90.30
2023-05-25T09:33:27.480Z,90.60
2023-05-25T09:36:29.204Z,90.30
2023-05-25T09:39:31.033Z,90.40
2023-05-25T09:42:33.810Z,89.90
2023-05-25T09:45:38.557Z,89.20
2023-05-25T09:48:41.223Z,87.20
2023-05-25T09:51:42.888Z,87.80
2023-05-25T09:54:47.320Z,87.20
2023-05-25T09:57:54.743Z,87.40
2023-05-25T10:00:56.485Z,87.20
2023-05-25T10:04:04.187Z,89.00
2023-05-25T10:07:09.170Z,88.90
2023-05-25T10:10:15.233Z,88.10
2023-05-25T10:13:24.151Z,88.60
2023-05-25T10:16:27.876Z,89.50
2023-05-25T10:19:41.306Z,89.10
2023-05-25T10:23:00.849Z,89.20
2023-05-25T10:26:05.754Z,89.30
2023-05-25T10:29:08.977Z,89.40
2023-05-25T10:32:10.959Z,89.00
2023-05-25T10:35:13.880Z,88.60
2023-05-25T10:38:16.940Z,87.90
2023-05-25T10:41:20.566Z,87.30
2023-05-25T10:44:22.573Z,88.20
2023-05-25T10:47:24.873Z,87.70
2023-05-25T10:50:27.867Z,87.40
2023-05-25T10:53:29.519Z,88.10
2023-05-25T10:56:31.216Z,87.50
2023-05-25T10:59:32.805Z,87.10
2023-05-25T11:02:55.234Z,87.50
2023-05-25T11:05:56.877Z,87.50
2023-05-25T11:08:59.939Z,87.90
2023-05-25T11:12:03.934Z,87.60
2023-05-25T11:15:10.901Z,87.90
2023-05-25T11:18:15.186Z,87.30
2023-05-25T11:21:24.243Z,87.50
2023-05-25T11:24:25.926Z,85.60
2023-05-25T11:27:31.846Z,86.80
2023-05-25T11:30:33.753Z,85.40
2023-05-25T11:33:35.555Z,85.30
2023-05-25T11:36:37.523Z,85.70
2023-05-25T11:39:39.734Z,84.90
2023-05-25T11:42:42.498Z,85.00
2023-05-25T11:45:44.271Z,85.60
2023-05-25T11:48:53.235Z,85.50
2023-05-25T11:51:57.228Z,83.50
2023-05-25T11:54:59.157Z,85.40
2023-05-25T11:58:00.802Z,84.90
2023-05-25T12:01:21.440Z,85.30
2023-05-25T12:04:24.419Z,83.10
2023-05-25T12:07:27.298Z,85.70
2023-05-25T12:10:28.909Z,85.40
2023-05-25T12:13:31.684Z,84.60
2023-05-25T12:16:39.046Z,84.60
2023-05-25T12:19:40.876Z,83.00
2023-05-25T12:22:43.682Z,83.50
2023-05-25T12:25:51.041Z,83.10
2023-05-25T12:29:01.871Z,82.70
2023-05-25T12:32:04.506Z,79.80
2023-05-25T12:35:07.086Z,81.60
2023-05-25T12:38:12.026Z,81.10
2023-05-25T12:41:13.771Z,80.60
2023-05-25T12:44:18.359Z,80.70
2023-05-25T12:47:24.293Z,79.10
2023-05-25T12:50:25.902Z,77.60
2023-05-25T12:53:28.945Z,79.40
2023-05-25T12:56:31.345Z,79.10
2023-05-25T12:59:33.768Z,80.10
2023-05-25T13:02:35.364Z,79.60
2023-05-25T13:05:38.162Z,79.20
2023-05-25T13:08:40.088Z,79.90
2023-05-25T13:11:41.947Z,80.30
2023-05-25T13:14:43.545Z,81.00
2023-05-25T13:17:45.616Z,79.80
2023-05-25T13:20:50.004Z,79.40
2023-05-25T13:23:53.659Z,77.50
2023-05-25T13:26:55.281Z,78.00
2023-05-25T13:29:58.651Z,79.10
2023-05-25T13:33:00.318Z,80.20
2023-05-25T13:36:08.152Z,79.20
2023-05-25T13:39:13.258Z,77.00
2023-05-25T13:42:14.934Z,77.90
2023-05-25T13:45:16.546Z,78.50
2023-05-25T13:48:18.430Z,77.00
2023-05-25T13:51:20.227Z,75.40
2023-05-25T13:54:23.176Z,75.60
2023-05-25T13:57:24.784Z,76.40
2023-05-25T14:00:26.465Z,77.50
2023-05-25T14:03:28.176Z,75.00
2023-05-25T14:06:30.880Z,74.30
2023-05-25T14:09:32.627Z,72.90
2023-05-25T14:12:34.542Z,73.70
2023-05-25T14:15:36.320Z,75.30
2023-05-25T14:18:37.930Z,75.60
2023-05-25T14:21:39.527Z,76.20
2023-05-25T14:24:41.604Z,74.10
2023-05-25T14:27:43.280Z,72.70
2023-05-25T14:30:44.866Z,74.20
2023-05-25T14:33:46.576Z,73.50
2023-05-25T14:36:48.188Z,71.40
2023-05-25T14:39:50.845Z,72.70
2023-05-25T14:42:55.276Z,74.70
2023-05-25T14:45:57.047Z,75.30
2023-05-25T14:48:58.646Z,74.30
2023-05-25T14:52:00.269Z,71.60
2023-05-25T14:55:01.870Z,71.60
2023-05-25T14:58:03.553Z,73.10
2023-05-25T15:01:05.341Z,73.50
2023-05-25T15:04:08.458Z,72.70
2023-05-25T15:07:12.929Z,72.30
2023-05-25T15:10:14.747Z,74.40
2023-05-25T15:13:16.390Z,74.20
2023-05-25T15:16:18.532Z,75.20
2023-05-25T15:19:20.328Z,76.50
2023-05-25T15:22:21.898Z,75.10
2023-05-25T15:25:34.941Z,75.40
2023-05-25T15:28:37.927Z,75.30
2023-05-25T15:31:39.686Z,75.70
2023-05-25T15:34:41.320Z,75.20
2023-05-25T15:37:43.203Z,75.20
2023-05-25T15:40:44.830Z,76.60
2023-05-25T15:44:01.121Z,75.40
2023-05-25T15:47:02.901Z,76.50
2023-05-25T15:50:04.766Z,75.60
2023-05-25T15:53:06.845Z,75.50
2023-05-25T15:56:08.451Z,75.70
2023-05-25T15:59:12.066Z,75.80
2023-05-25T16:02:14.081Z,75.80
2023-05-25T16:05:15.780Z,75.80
2023-05-25T16:08:17.498Z,77.00
2023-05-25T16:11:19.328Z,76.30
2023-05-25T16:14:20.967Z,76.50
2023-05-25T16:17:22.666Z,76.00
2023-05-25T16:20:24.337Z,75.50
2023-05-25T16:23:26.005Z,76.80
2023-05-25T16:26:27.625Z,76.30
2023-05-25T16:29:29.463Z,76.30
2023-05-25T16:32:31.203Z,76.10
2023-05-25T16:35:32.862Z,77.80
2023-05-25T16:38:34.478Z,76.80
2023-05-25T16:41:36.067Z,77.00
2023-05-25T16:44:37.649Z,76.70
2023-05-25T16:47:39.276Z,76.40
2023-05-25T16:50:40.974Z,76.00
2023-05-25T16:53:43.424Z,77.00
2023-05-25T16:56:45.016Z,76.00
2023-05-25T16:59:46.982Z,76.40
2023-05-25T17:02:48.727Z,76.00
2023-05-25T17:05:52.350Z,75.90
2023-05-25T17:08:55.770Z,75.10
2023-05-25T17:12:01.614Z,76.10
2023-05-25T17:15:03.614Z,74.30
2023-05-25T17:18:05.518Z,75.40
2023-05-25T17:21:07.437Z,75.50
2023-05-25T17:24:09.268Z,75.70
2023-05-25T17:27:10.921Z,75.40
2023-05-25T17:30:13.024Z,75.10
2023-05-25T17:33:14.767Z,74.60
2023-05-25T17:36:16.353Z,75.80
2023-05-25T17:39:18.523Z,76.50
2023-05-25T17:42:20.116Z,74.90
2023-05-25T17:45:21.757Z,76.00
2023-05-25T17:48:23.321Z,74.40
2023-05-25T17:51:25.019Z,74.10
2023-05-25T17:54:27.346Z,74.40
2023-05-25T17:57:29.004Z,74.10
2023-05-25T18:00:30.941Z,70.70
2023-05-25T18:03:32.764Z,71.10
2023-05-25T18:06:34.587Z,73.40
2023-05-25T18:09:36.216Z,74.00
2023-05-25T18:12:37.814Z,74.90
2023-05-25T18:15:39.498Z,75.90
2023-05-25T18:18:41.140Z,77.00
2023-05-25T18:21:42.707Z,77.10
2023-05-25T18:24:44.302Z,75.90
2023-05-25T18:27:45.965Z,76.20
2023-05-25T18:30:47.614Z,76.60
2023-05-25T18:33:49.319Z,76.20
2023-05-25T18:36:50.929Z,76.90
2023-05-25T18:39:52.966Z,76.60
2023-05-25T18:42:54.598Z,76.20
2023-05-25T18:45:56.314Z,77.90
2023-05-25T18:48:58.104Z,76.00
2023-05-25T18:52:00.915Z,77.20
2023-05-25T18:55:02.520Z,76.80
2023-05-25T18:58:04.158Z,76.50
2023-05-25T19:01:05.800Z,76.60
2023-05-25T19:04:07.443Z,76.50
2023-05-25T19:07:09.151Z,77.10
2023-05-25T19:10:11.176Z,76.90
2023-05-25T19:13:12.869Z,77.30
2023-05-25T19:16:17.495Z,77.20
2023-05-25T19:19:21.144Z,78.30
2023-05-25T19:22:22.763Z,77.80
2023-05-25T19:25:24.612Z,77.50
2023-05-25T19:28:26.502Z,77.40
2023-05-25T19:31:28.140Z,77.20
2023-05-25T19:34:29.756Z,78.20
2023-05-25T19:37:31.376Z,78.40
2023-05-25T19:40:33.405Z,78.80
2023-05-25T19:43:35.017Z,79.00
2023-05-25T19:46:39.011Z,78.90
2023-05-25T19:49:40.911Z,78.80
2023-05-25T19:52:42.512Z,79.00
2023-05-25T19:55:45.954Z,79.60
2023-05-25T19:58:47.639Z,78.40
2023-05-25T20:01:49.361Z,80.10
2023-05-25T20:04:51.074Z,80.00
2023-05-25T20:07:52.899Z,80.20
2023-05-25T20:10:55.596Z,81.80
2023-05-25T20:13:57.304Z,80.40
2023-05-25T20:16:59.108Z,81.50
2023-05-25T20:20:05.024Z,80.80
2023-05-25T20:23:06.702Z,81.30
2023-05-25T20:26:08.627Z,81.20
2023-05-25T20:29:10.428Z,81.30
2023-05-25T20:32:12.282Z,81.40
2023-05-25T20:35:14.071Z,83.00
2023-05-25T20:38:15.688Z,81.50
2023-05-25T20:41:17.526Z,81.30
2023-05-25T20:44:19.159Z,81.50
2023-05-25T20:47:21.000Z,81.30
2023-05-25T20:50:22.603Z,81.80
2023-05-25T20:53:24.327Z,81.70
2023-05-25T20:56:27.146Z,81.40
2023-05-25T20:59:31.377Z,81.50
2023-05-25T21:02:33.042Z,83.10
2023-05-25T21:05:36.253Z,81.70
2023-05-25T21:08:37.824Z,81.80
2023-05-25T21:11:39.517Z,81.80
2023-05-25T21:14:41.113Z,81.50
2023-05-25T21:17:42.754Z,82.00
2023-05-25T21:20:44.557Z,82.40
2023-05-25T21:23:46.787Z,81.90
2023-05-25T21:26:48.435Z,81.40
2023-05-25T21:29:50.153Z,82.40
2023-05-25T21:32:51.953Z,83.20
2023-05-25T21:35:53.540Z,83.60
2023-05-25T21:38:55.472Z,82.30
2023-05-25T21:41:57.056Z,82.20
2023-05-25T21:44:58.794Z,82.40
2023-05-25T21:48:00.649Z,82.50
2023-05-25T21:51:02.365Z,82.20
2023-05-25T21:54:04.109Z,82.60
2023-05-25T21:57:05.853Z,82.70
2023-05-25T22:00:10.020Z,82.70
2023-05-25T22:03:11.954Z,82.90
2023-05-25T22:06:13.691Z,83.10
2023-05-25T22:09:15.546Z,83.00
2023-05-25T22:12:17.192Z,83.40
2023-05-25T22:15:18.827Z,83.10
2023-05-25T22:18:20.539Z,83.10
2023-05-25T22:21:22.184Z,83.40
2023-05-25T22:24:23.806Z,83.50
2023-05-25T22:27:26.171Z,83.10
2023-05-25T22:30:27.790Z,83.30
2023-05-25T22:33:29.533Z,83.30
2023-05-25T22:36:31.354Z,83.60
2023-05-25T22:39:32.956Z,84.80
2023-05-25T22:42:34.729Z,83.50
2023-05-25T22:45:36.371Z,83.90
2023-05-25T22:48:37.973Z,83.50
2023-05-25T22:51:39.596Z,83.90
2023-05-25T22:54:41.522Z,84.10
2023-05-25T22:57:43.263Z,84.10
2023-05-25T23:00:44.873Z,84.00
2023-05-25T23:03:46.546Z,84.30
2023-05-25T23:06:48.338Z,84.50
2023-05-25T23:09:49.941Z,84.40
2023-05-25T23:12:51.532Z,84.20
2023-05-25T23:15:55.250Z,84.50
2023-05-25T23:18:57.152Z,85.50
2023-05-25T23:21:58.803Z,85.10
2023-05-25T23:25:00.560Z,84.90
2023-05-25T23:28:02.275Z,86.30
2023-05-25T23:31:04.000Z,85.70
2023-05-25T23:34:06.609Z,85.30
2023-05-25T23:37:08.308Z,85.20
2023-05-25T23:40:10.962Z,85.10
2023-05-25T23:43:13.079Z,86.00
2023-05-25T23:46:16.282Z,85.70
2023-05-25T23:49:17.909Z,85.80
2023-05-25T23:52:19.583Z,85.70
2023-05-25T23:55:21.529Z,86.70
2023-05-25T23:58:23.485Z,86.70
